sensor_id;sensor_type;location;lat;lon;timestamp;P1;durP1;ratioP1;P2;durP2;ratioP2
20080;SDS011;10200;49.232;9.222;2024-03-17T00:00:01;4.13;;;3.47;;
20080;SDS011;10200;49.232;9.222;2024-03-17T00:02:30;3.97;;;3.43;;
20080;SDS011;10200;49.232;9.222;2024-03-17T00:04:55;4.37;;;3.47;;
20080;SDS011;10200;49.232;9.222;2024-03-17T00:07:21;6.77;;;3.47;;
20080;SDS011;10200;49.232;9.222;2024-03-17T00:09:47;5.67;;;3.57;;
20080;SDS011;10200;49.232;9.222;2024-03-17T00:12:13;5.03;;;4.30;;
20080;SDS011;10200;49.232;9.222;2024-03-17T00:14:39;6.20;;;4.40;;
20080;SDS011;10200;49.232;9.222;2024-03-17T00:17:04;5.77;;;4.40;;
20080;SDS011;10200;49.232;9.222;2024-03-17T00:19:30;5.63;;;4.27;;
20080;SDS011;10200;49.232;9.222;2024-03-17T00:21:56;4.97;;;3.90;;
20080;SDS011;10200;49.232;9.222;2024-03-17T00:24:21;5.33;;;4.13;;
20080;SDS011;10200;49.232;9.222;2024-03-17T00:26:47;5.43;;;3.77;;
20080;SDS011;10200;49.232;9.222;2024-03-17T00:29:13;4.13;;;3.73;;
20080;SDS011;10200;49.232;9.222;2024-03-17T00:31:39;5.17;;;3.50;;
20080;SDS011;10200;49.232;9.222;2024-03-17T00:34:05;4.77;;;3.60;;
20080;SDS011;10200;49.232;9.222;2024-03-17T00:36:31;4.47;;;3.50;;
20080;SDS011;10200;49.232;9.222;2024-03-17T00:38:57;4.03;;;3.20;;
20080;SDS011;10200;49.232;9.222;2024-03-17T00:41:23;6.23;;;3.40;;
20080;SDS011;10200;49.232;9.222;2024-03-17T00:43:49;4.53;;;3.30;;
20080;SDS011;10200;49.232;9.222;2024-03-17T00:46:16;3.93;;;3.10;;
20080;SDS011;10200;49.232;9.222;2024-03-17T00:48:42;4.47;;;3.30;;
20080;SDS011;10200;49.232;9.222;2024-03-17T00:51:08;4.93;;;3.07;;
20080;SDS011;10200;49.232;9.222;2024-03-17T00:53:34;4.53;;;3.70;;
20080;SDS011;10200;49.232;9.222;2024-03-17T00:56:00;7.30;;;3.93;;
20080;SDS011;10200;49.232;9.222;2024-03-17T00:58:26;4.87;;;3.73;;
20080;SDS011;10200;49.232;9.222;2024-03-17T01:00:52;6.23;;;3.80;;
20080;SDS011;10200;49.232;9.222;2024-03-17T01:03:17;8.80;;;4.43;;
20080;SDS011;10200;49.232;9.222;2024-03-17T01:05:43;4.77;;;3.87;;
20080;SDS011;10200;49.232;9.222;2024-03-17T01:08:12;5.97;;;3.63;;
20080;SDS011;10200;49.232;9.222;2024-03-17T01:10:38;6.63;;;4.37;;
20080;SDS011;10200;49.232;9.222;2024-03-17T01:13:05;7.07;;;4.83;;
20080;SDS011;10200;49.232;9.222;2024-03-17T01:15:32;9.50;;;4.80;;
20080;SDS011;10200;49.232;9.222;2024-03-17T01:17:58;7.13;;;4.10;;
20080;SDS011;10200;49.232;9.222;2024-03-17T01:20:24;5.87;;;3.87;;
20080;SDS011;10200;49.232;9.222;2024-03-17T01:22:51;4.20;;;3.43;;
20080;SDS011;10200;49.232;9.222;2024-03-17T01:25:16;5.87;;;3.70;;
20080;SDS011;10200;49.232;9.222;2024-03-17T01:27:42;6.03;;;3.67;;
20080;SDS011;10200;49.232;9.222;2024-03-17T01:30:08;6.63;;;3.97;;
20080;SDS011;10200;49.232;9.222;2024-03-17T01:32:35;5.83;;;3.60;;
20080;SDS011;10200;49.232;9.222;2024-03-17T01:35:01;3.53;;;3.20;;
20080;SDS011;10200;49.232;9.222;2024-03-17T01:37:27;6.83;;;3.77;;
20080;SDS011;10200;49.232;9.222;2024-03-17T01:39:56;6.53;;;3.90;;
20080;SDS011;10200;49.232;9.222;2024-03-17T01:42:22;4.70;;;4.03;;
20080;SDS011;10200;49.232;9.222;2024-03-17T01:44:48;5.10;;;3.70;;
20080;SDS011;10200;49.232;9.222;2024-03-17T01:47:15;4.03;;;3.63;;
20080;SDS011;10200;49.232;9.222;2024-03-17T01:49:43;5.70;;;3.93;;
20080;SDS011;10200;49.232;9.222;2024-03-17T01:52:15;7.57;;;4.83;;
20080;SDS011;10200;49.232;9.222;2024-03-17T01:54:42;8.97;;;4.70;;
20080;SDS011;10200;49.232;9.222;2024-03-17T01:57:08;5.03;;;4.10;;
20080;SDS011;10200;49.232;9.222;2024-03-17T01:59:36;4.50;;;3.93;;
20080;SDS011;10200;49.232;9.222;2024-03-17T02:02:02;4.63;;;3.43;;
20080;SDS011;10200;49.232;9.222;2024-03-17T02:04:28;4.00;;;3.60;;
20080;SDS011;10200;49.232;9.222;2024-03-17T02:06:54;7.50;;;3.87;;
20080;SDS011;10200;49.232;9.222;2024-03-17T02:09:20;5.43;;;4.10;;
20080;SDS011;10200;49.232;9.222;2024-03-17T02:11:47;6.60;;;4.07;;
20080;SDS011;10200;49.232;9.222;2024-03-17T02:14:13;5.97;;;3.77;;
20080;SDS011;10200;49.232;9.222;2024-03-17T02:16:39;4.50;;;3.43;;
20080;SDS011;10200;49.232;9.222;2024-03-17T02:19:05;4.27;;;3.17;;
20080;SDS011;10200;49.232;9.222;2024-03-17T02:21:31;4.20;;;3.43;;
20080;SDS011;10200;49.232;9.222;2024-03-17T02:23:57;4.33;;;3.33;;
20080;SDS011;10200;49.232;9.222;2024-03-17T02:26:23;4.43;;;3.77;;
20080;SDS011;10200;49.232;9.222;2024-03-17T02:28:50;4.43;;;3.60;;
20080;SDS011;10200;49.232;9.222;2024-03-17T02:31:16;7.33;;;4.03;;
20080;SDS011;10200;49.232;9.222;2024-03-17T02:33:43;5.30;;;3.43;;
20080;SDS011;10200;49.232;9.222;2024-03-17T02:36:09;3.87;;;3.43;;
20080;SDS011;10200;49.232;9.222;2024-03-17T02:38:36;7.10;;;3.80;;
20080;SDS011;10200;49.232;9.222;2024-03-17T02:41:24;6.87;;;4.40;;
20080;SDS011;10200;49.232;9.222;2024-03-17T02:43:50;4.93;;;4.00;;
20080;SDS011;10200;49.232;9.222;2024-03-17T02:46:16;3.83;;;3.43;;
20080;SDS011;10200;49.232;9.222;2024-03-17T02:48:52;5.60;;;3.80;;
20080;SDS011;10200;49.232;9.222;2024-03-17T02:51:19;6.70;;;4.13;;
20080;SDS011;10200;49.232;9.222;2024-03-17T02:53:46;8.30;;;4.23;;
20080;SDS011;10200;49.232;9.222;2024-03-17T02:56:14;3.70;;;3.30;;
20080;SDS011;10200;49.232;9.222;2024-03-17T02:58:43;4.50;;;3.50;;
20080;SDS011;10200;49.232;9.222;2024-03-17T03:01:14;5.40;;;4.90;;
20080;SDS011;10200;49.232;9.222;2024-03-17T03:03:40;6.93;;;4.40;;
20080;SDS011;10200;49.232;9.222;2024-03-17T03:06:06;5.03;;;4.30;;
20080;SDS011;10200;49.232;9.222;2024-03-17T03:08:43;5.97;;;3.40;;
20080;SDS011;10200;49.232;9.222;2024-03-17T03:11:10;6.40;;;3.30;;
20080;SDS011;10200;49.232;9.222;2024-03-17T03:13:40;4.00;;;3.60;;
20080;SDS011;10200;49.232;9.222;2024-03-17T03:16:08;5.43;;;3.93;;
20080;SDS011;10200;49.232;9.222;2024-03-17T03:18:35;3.67;;;3.37;;
20080;SDS011;10200;49.232;9.222;2024-03-17T03:21:02;4.00;;;3.40;;
20080;SDS011;10200;49.232;9.222;2024-03-17T03:23:28;6.00;;;3.87;;
20080;SDS011;10200;49.232;9.222;2024-03-17T03:25:55;4.80;;;3.67;;
20080;SDS011;10200;49.232;9.222;2024-03-17T03:28:22;5.03;;;3.73;;
20080;SDS011;10200;49.232;9.222;2024-03-17T03:30:48;5.87;;;4.07;;
20080;SDS011;10200;49.232;9.222;2024-03-17T03:33:13;3.80;;;3.40;;
20080;SDS011;10200;49.232;9.222;2024-03-17T03:35:39;5.87;;;3.97;;
20080;SDS011;10200;49.232;9.222;2024-03-17T03:38:04;4.27;;;2.93;;
20080;SDS011;10200;49.232;9.222;2024-03-17T03:40:31;5.77;;;4.30;;
20080;SDS011;10200;49.232;9.222;2024-03-17T03:42:57;5.20;;;3.70;;
20080;SDS011;10200;49.232;9.222;2024-03-17T03:45:23;4.50;;;3.43;;
20080;SDS011;10200;49.232;9.222;2024-03-17T03:47:49;4.67;;;3.63;;
20080;SDS011;10200;49.232;9.222;2024-03-17T03:50:15;3.97;;;3.30;;
20080;SDS011;10200;49.232;9.222;2024-03-17T03:52:44;3.87;;;3.33;;
20080;SDS011;10200;49.232;9.222;2024-03-17T03:55:10;6.57;;;3.80;;
20080;SDS011;10200;49.232;9.222;2024-03-17T03:57:39;5.10;;;3.77;;
20080;SDS011;10200;49.232;9.222;2024-03-17T04:00:04;5.23;;;3.53;;
20080;SDS011;10200;49.232;9.222;2024-03-17T04:02:37;5.07;;;3.33;;
20080;SDS011;10200;49.232;9.222;2024-03-17T04:05:03;8.53;;;3.33;;
20080;SDS011;10200;49.232;9.222;2024-03-17T04:07:29;5.67;;;3.57;;
20080;SDS011;10200;49.232;9.222;2024-03-17T04:09:54;5.47;;;3.57;;
20080;SDS011;10200;49.232;9.222;2024-03-17T04:12:20;3.40;;;3.03;;
20080;SDS011;10200;49.232;9.222;2024-03-17T04:14:46;5.17;;;3.40;;
20080;SDS011;10200;49.232;9.222;2024-03-17T04:17:11;3.40;;;3.10;;
20080;SDS011;10200;49.232;9.222;2024-03-17T04:19:38;5.57;;;3.33;;
20080;SDS011;10200;49.232;9.222;2024-03-17T04:22:03;2.93;;;2.63;;
20080;SDS011;10200;49.232;9.222;2024-03-17T04:24:29;3.37;;;3.00;;
20080;SDS011;10200;49.232;9.222;2024-03-17T04:26:55;3.87;;;3.33;;
20080;SDS011;10200;49.232;9.222;2024-03-17T04:29:20;4.97;;;3.03;;
20080;SDS011;10200;49.232;9.222;2024-03-17T04:31:46;4.40;;;2.93;;
20080;SDS011;10200;49.232;9.222;2024-03-17T04:34:14;3.77;;;3.20;;
20080;SDS011;10200;49.232;9.222;2024-03-17T04:36:40;4.43;;;3.30;;
20080;SDS011;10200;49.232;9.222;2024-03-17T04:39:05;3.70;;;2.73;;
20080;SDS011;10200;49.232;9.222;2024-03-17T04:41:33;5.37;;;3.13;;
20080;SDS011;10200;49.232;9.222;2024-03-17T04:43:59;3.53;;;2.67;;
20080;SDS011;10200;49.232;9.222;2024-03-17T04:46:24;3.37;;;3.00;;
20080;SDS011;10200;49.232;9.222;2024-03-17T04:48:51;4.03;;;3.47;;
20080;SDS011;10200;49.232;9.222;2024-03-17T04:51:17;3.90;;;2.97;;
20080;SDS011;10200;49.232;9.222;2024-03-17T04:53:43;5.43;;;3.10;;
20080;SDS011;10200;49.232;9.222;2024-03-17T04:56:08;5.47;;;3.23;;
20080;SDS011;10200;49.232;9.222;2024-03-17T04:58:34;2.60;;;2.40;;
20080;SDS011;10200;49.232;9.222;2024-03-17T05:01:09;3.73;;;2.77;;
20080;SDS011;10200;49.232;9.222;2024-03-17T05:03:35;3.63;;;2.83;;
20080;SDS011;10200;49.232;9.222;2024-03-17T05:06:01;2.70;;;2.50;;
20080;SDS011;10200;49.232;9.222;2024-03-17T05:08:28;5.83;;;2.87;;
20080;SDS011;10200;49.232;9.222;2024-03-17T05:13:24;3.73;;;3.03;;
20080;SDS011;10200;49.232;9.222;2024-03-17T05:15:51;2.73;;;2.13;;
20080;SDS011;10200;49.232;9.222;2024-03-17T05:18:16;4.43;;;3.03;;
20080;SDS011;10200;49.232;9.222;2024-03-17T05:20:42;3.13;;;2.80;;
20080;SDS011;10200;49.232;9.222;2024-03-17T05:23:08;8.30;;;2.90;;
20080;SDS011;10200;49.232;9.222;2024-03-17T05:25:33;5.90;;;2.80;;
20080;SDS011;10200;49.232;9.222;2024-03-17T05:28:02;4.40;;;3.10;;
20080;SDS011;10200;49.232;9.222;2024-03-17T05:30:27;3.80;;;2.90;;
20080;SDS011;10200;49.232;9.222;2024-03-17T05:32:54;6.00;;;3.47;;
20080;SDS011;10200;49.232;9.222;2024-03-17T05:35:19;3.97;;;2.90;;
20080;SDS011;10200;49.232;9.222;2024-03-17T05:37:45;3.37;;;3.00;;
20080;SDS011;10200;49.232;9.222;2024-03-17T05:40:11;4.17;;;3.43;;
20080;SDS011;10200;49.232;9.222;2024-03-17T05:42:42;4.93;;;3.43;;
20080;SDS011;10200;49.232;9.222;2024-03-17T05:45:08;2.93;;;2.57;;
20080;SDS011;10200;49.232;9.222;2024-03-17T05:47:37;3.60;;;3.27;;
20080;SDS011;10200;49.232;9.222;2024-03-17T05:50:04;4.23;;;3.57;;
20080;SDS011;10200;49.232;9.222;2024-03-17T05:52:30;6.17;;;4.20;;
20080;SDS011;10200;49.232;9.222;2024-03-17T05:54:55;3.87;;;3.23;;
20080;SDS011;10200;49.232;9.222;2024-03-17T05:57:21;3.83;;;3.47;;
20080;SDS011;10200;49.232;9.222;2024-03-17T05:59:49;4.03;;;3.47;;
20080;SDS011;10200;49.232;9.222;2024-03-17T06:02:15;4.00;;;3.27;;
20080;SDS011;10200;49.232;9.222;2024-03-17T06:04:41;6.67;;;3.17;;
20080;SDS011;10200;49.232;9.222;2024-03-17T06:07:07;5.27;;;4.10;;
20080;SDS011;10200;49.232;9.222;2024-03-17T06:09:32;7.27;;;3.70;;
20080;SDS011;10200;49.232;9.222;2024-03-17T06:11:58;4.83;;;3.70;;
20080;SDS011;10200;49.232;9.222;2024-03-17T06:14:23;3.07;;;2.73;;
20080;SDS011;10200;49.232;9.222;2024-03-17T06:16:49;5.77;;;3.20;;
20080;SDS011;10200;49.232;9.222;2024-03-17T06:19:15;4.73;;;3.73;;
20080;SDS011;10200;49.232;9.222;2024-03-17T06:21:40;4.87;;;4.20;;
20080;SDS011;10200;49.232;9.222;2024-03-17T06:24:06;4.70;;;3.20;;
20080;SDS011;10200;49.232;9.222;2024-03-17T06:26:32;6.43;;;3.80;;
20080;SDS011;10200;49.232;9.222;2024-03-17T06:29:00;8.00;;;3.80;;
20080;SDS011;10200;49.232;9.222;2024-03-17T06:31:25;3.17;;;2.87;;
20080;SDS011;10200;49.232;9.222;2024-03-17T06:33:51;3.13;;;2.90;;
20080;SDS011;10200;49.232;9.222;2024-03-17T06:36:17;3.13;;;2.80;;
20080;SDS011;10200;49.232;9.222;2024-03-17T06:38:42;4.60;;;2.53;;
20080;SDS011;10200;49.232;9.222;2024-03-17T06:41:11;3.23;;;2.50;;
20080;SDS011;10200;49.232;9.222;2024-03-17T06:43:40;2.60;;;2.30;;
20080;SDS011;10200;49.232;9.222;2024-03-17T06:46:08;3.30;;;2.50;;
20080;SDS011;10200;49.232;9.222;2024-03-17T06:48:34;2.60;;;2.40;;
20080;SDS011;10200;49.232;9.222;2024-03-17T06:51:00;2.75;;;2.53;;
20080;SDS011;10200;49.232;9.222;2024-03-17T06:53:26;3.20;;;2.38;;
20080;SDS011;10200;49.232;9.222;2024-03-17T06:55:52;2.80;;;2.35;;
20080;SDS011;10200;49.232;9.222;2024-03-17T06:58:19;5.93;;;2.40;;
20080;SDS011;10200;49.232;9.222;2024-03-17T07:00:54;2.67;;;2.40;;
20080;SDS011;10200;49.232;9.222;2024-03-17T07:03:30;3.72;;;2.60;;
20080;SDS011;10200;49.232;9.222;2024-03-17T07:05:57;3.08;;;2.50;;
20080;SDS011;10200;49.232;9.222;2024-03-17T07:08:24;2.60;;;2.40;;
20080;SDS011;10200;49.232;9.222;2024-03-17T07:13:30;4.25;;;2.72;;
20080;SDS011;10200;49.232;9.222;2024-03-17T07:16:00;3.83;;;3.25;;
20080;SDS011;10200;49.232;9.222;2024-03-17T07:18:31;3.10;;;2.80;;
20080;SDS011;10200;49.232;9.222;2024-03-17T07:20:57;3.72;;;2.95;;
20080;SDS011;10200;49.232;9.222;2024-03-17T07:23:29;5.43;;;3.10;;
20080;SDS011;10200;49.232;9.222;2024-03-17T07:25:55;5.10;;;3.00;;
20080;SDS011;10200;49.232;9.222;2024-03-17T07:28:25;3.20;;;2.70;;
20080;SDS011;10200;49.232;9.222;2024-03-17T07:30:51;3.72;;;3.13;;
20080;SDS011;10200;49.232;9.222;2024-03-17T07:33:18;3.47;;;2.73;;
20080;SDS011;10200;49.232;9.222;2024-03-17T07:35:58;4.53;;;2.83;;
20080;SDS011;10200;49.232;9.222;2024-03-17T07:38:28;2.88;;;2.42;;
20080;SDS011;10200;49.232;9.222;2024-03-17T07:40:55;4.00;;;3.53;;
20080;SDS011;10200;49.232;9.222;2024-03-17T07:43:22;4.47;;;3.13;;
20080;SDS011;10200;49.232;9.222;2024-03-17T07:45:56;3.87;;;3.23;;
20080;SDS011;10200;49.232;9.222;2024-03-17T07:48:29;4.23;;;3.43;;
20080;SDS011;10200;49.232;9.222;2024-03-17T07:53:22;3.63;;;3.17;;
20080;SDS011;10200;49.232;9.222;2024-03-17T07:55:56;4.70;;;3.57;;
20080;SDS011;10200;49.232;9.222;2024-03-17T07:58:23;4.30;;;3.70;;
20080;SDS011;10200;49.232;9.222;2024-03-17T08:00:50;4.00;;;3.60;;
20080;SDS011;10200;49.232;9.222;2024-03-17T08:03:21;4.23;;;3.83;;
20080;SDS011;10200;49.232;9.222;2024-03-17T08:05:47;5.37;;;3.77;;
20080;SDS011;10200;49.232;9.222;2024-03-17T08:08:14;5.22;;;3.60;;
20080;SDS011;10200;49.232;9.222;2024-03-17T08:10:41;4.80;;;4.07;;
20080;SDS011;10200;49.232;9.222;2024-03-17T08:13:06;5.43;;;4.07;;
20080;SDS011;10200;49.232;9.222;2024-03-17T08:15:34;6.28;;;3.88;;
20080;SDS011;10200;49.232;9.222;2024-03-17T08:17:59;6.40;;;4.30;;
20080;SDS011;10200;49.232;9.222;2024-03-17T08:20:25;4.87;;;4.30;;
20080;SDS011;10200;49.232;9.222;2024-03-17T08:22:51;4.43;;;4.03;;
20080;SDS011;10200;49.232;9.222;2024-03-17T08:25:17;4.43;;;4.03;;
20080;SDS011;10200;49.232;9.222;2024-03-17T08:27:42;6.80;;;4.80;;
20080;SDS011;10200;49.232;9.222;2024-03-17T08:30:08;6.07;;;4.90;;
20080;SDS011;10200;49.232;9.222;2024-03-17T08:32:38;4.57;;;4.13;;
20080;SDS011;10200;49.232;9.222;2024-03-17T08:35:04;6.17;;;4.23;;
20080;SDS011;10200;49.232;9.222;2024-03-17T08:37:31;5.10;;;4.10;;
20080;SDS011;10200;49.232;9.222;2024-03-17T08:39:56;6.10;;;4.67;;
20080;SDS011;10200;49.232;9.222;2024-03-17T08:42:22;4.93;;;4.30;;
20080;SDS011;10200;49.232;9.222;2024-03-17T08:44:47;5.27;;;4.27;;
20080;SDS011;10200;49.232;9.222;2024-03-17T08:47:13;5.67;;;4.40;;
20080;SDS011;10200;49.232;9.222;2024-03-17T08:49:39;6.30;;;4.43;;
20080;SDS011;10200;49.232;9.222;2024-03-17T08:52:05;5.45;;;3.78;;
20080;SDS011;10200;49.232;9.222;2024-03-17T08:54:30;5.80;;;4.67;;
20080;SDS011;10200;49.232;9.222;2024-03-17T08:56:56;6.73;;;4.93;;
20080;SDS011;10200;49.232;9.222;2024-03-17T08:59:22;5.37;;;4.33;;
20080;SDS011;10200;49.232;9.222;2024-03-17T09:01:47;6.50;;;4.13;;
20080;SDS011;10200;49.232;9.222;2024-03-17T09:04:13;5.93;;;5.23;;
20080;SDS011;10200;49.232;9.222;2024-03-17T09:06:38;5.40;;;4.73;;
20080;SDS011;10200;49.232;9.222;2024-03-17T09:09:04;6.25;;;4.38;;
20080;SDS011;10200;49.232;9.222;2024-03-17T09:11:31;7.07;;;4.43;;
20080;SDS011;10200;49.232;9.222;2024-03-17T09:13:56;5.47;;;4.33;;
20080;SDS011;10200;49.232;9.222;2024-03-17T09:16:23;6.73;;;4.97;;
20080;SDS011;10200;49.232;9.222;2024-03-17T09:18:50;5.73;;;4.70;;
20080;SDS011;10200;49.232;9.222;2024-03-17T09:21:16;7.97;;;5.03;;
20080;SDS011;10200;49.232;9.222;2024-03-17T09:23:42;6.10;;;5.10;;
20080;SDS011;10200;49.232;9.222;2024-03-17T09:26:08;5.67;;;4.43;;
20080;SDS011;10200;49.232;9.222;2024-03-17T09:28:35;5.67;;;4.50;;
20080;SDS011;10200;49.232;9.222;2024-03-17T09:31:01;6.47;;;4.20;;
20080;SDS011;10200;49.232;9.222;2024-03-17T09:33:28;5.57;;;4.23;;
20080;SDS011;10200;49.232;9.222;2024-03-17T09:35:55;7.13;;;5.00;;
20080;SDS011;10200;49.232;9.222;2024-03-17T09:38:22;7.40;;;4.57;;
20080;SDS011;10200;49.232;9.222;2024-03-17T09:40:48;6.13;;;4.70;;
20080;SDS011;10200;49.232;9.222;2024-03-17T09:43:23;6.93;;;4.43;;
20080;SDS011;10200;49.232;9.222;2024-03-17T09:45:49;5.80;;;4.57;;
20080;SDS011;10200;49.232;9.222;2024-03-17T09:48:22;5.30;;;4.50;;
20080;SDS011;10200;49.232;9.222;2024-03-17T09:51:02;7.47;;;4.50;;
20080;SDS011;10200;49.232;9.222;2024-03-17T09:53:34;9.10;;;4.43;;
20080;SDS011;10200;49.232;9.222;2024-03-17T09:56:01;6.13;;;4.37;;
20080;SDS011;10200;49.232;9.222;2024-03-17T09:58:29;5.67;;;3.80;;
20080;SDS011;10200;49.232;9.222;2024-03-17T10:00:54;5.30;;;4.17;;
20080;SDS011;10200;49.232;9.222;2024-03-17T10:06:16;6.47;;;5.03;;
20080;SDS011;10200;49.232;9.222;2024-03-17T10:08:47;7.07;;;5.13;;
20080;SDS011;10200;49.232;9.222;2024-03-17T10:11:14;7.20;;;4.87;;
20080;SDS011;10200;49.232;9.222;2024-03-17T10:13:44;8.37;;;5.17;;
20080;SDS011;10200;49.232;9.222;2024-03-17T10:16:24;5.03;;;4.53;;
20080;SDS011;10200;49.232;9.222;2024-03-17T10:19:05;5.17;;;4.40;;
20080;SDS011;10200;49.232;9.222;2024-03-17T10:21:39;10.40;;;4.57;;
20080;SDS011;10200;49.232;9.222;2024-03-17T10:26:59;6.50;;;4.70;;
20080;SDS011;10200;49.232;9.222;2024-03-17T10:31:58;5.03;;;4.57;;
20080;SDS011;10200;49.232;9.222;2024-03-17T10:34:27;7.13;;;4.93;;
20080;SDS011;10200;49.232;9.222;2024-03-17T10:37:10;6.90;;;4.10;;
20080;SDS011;10200;49.232;9.222;2024-03-17T10:39:41;4.53;;;3.80;;
20080;SDS011;10200;49.232;9.222;2024-03-17T10:42:08;5.23;;;4.27;;
20080;SDS011;10200;49.232;9.222;2024-03-17T10:44:36;4.70;;;4.20;;
20080;SDS011;10200;49.232;9.222;2024-03-17T10:47:03;4.07;;;3.67;;
20080;SDS011;10200;49.232;9.222;2024-03-17T10:49:35;9.15;;;4.07;;
20080;SDS011;10200;49.232;9.222;2024-03-17T10:54:42;4.75;;;3.30;;
20080;SDS011;10200;49.232;9.222;2024-03-17T10:57:32;3.80;;;2.93;;
20080;SDS011;10200;49.232;9.222;2024-03-17T11:00:10;4.37;;;3.70;;
20080;SDS011;10200;49.232;9.222;2024-03-17T11:02:42;4.07;;;3.37;;
20080;SDS011;10200;49.232;9.222;2024-03-17T11:07:51;5.87;;;3.40;;
20080;SDS011;10200;49.232;9.222;2024-03-17T11:20:40;7.73;;;4.87;;
20080;SDS011;10200;49.232;9.222;2024-03-17T11:23:06;7.63;;;5.23;;
20080;SDS011;10200;49.232;9.222;2024-03-17T11:25:37;7.18;;;3.80;;
20080;SDS011;10200;49.232;9.222;2024-03-17T11:28:04;5.77;;;3.60;;
20080;SDS011;10200;49.232;9.222;2024-03-17T11:38:53;3.58;;;2.85;;
20080;SDS011;10200;49.232;9.222;2024-03-17T11:46:45;3.13;;;2.60;;
20080;SDS011;10200;49.232;9.222;2024-03-17T11:51:54;4.22;;;2.88;;
20080;SDS011;10200;49.232;9.222;2024-03-17T11:54:25;4.67;;;3.00;;
20080;SDS011;10200;49.232;9.222;2024-03-17T11:56:55;3.75;;;2.70;;
20080;SDS011;10200;49.232;9.222;2024-03-17T11:59:25;5.65;;;3.72;;
20080;SDS011;10200;49.232;9.222;2024-03-17T12:01:52;4.57;;;3.20;;
20080;SDS011;10200;49.232;9.222;2024-03-17T12:04:19;5.65;;;2.70;;
20080;SDS011;10200;49.232;9.222;2024-03-17T12:06:46;3.92;;;3.13;;
20080;SDS011;10200;49.232;9.222;2024-03-17T12:11:48;5.32;;;3.25;;
20080;SDS011;10200;49.232;9.222;2024-03-17T12:14:35;3.45;;;2.72;;
20080;SDS011;10200;49.232;9.222;2024-03-17T12:17:03;4.85;;;3.03;;
20080;SDS011;10200;49.232;9.222;2024-03-17T12:19:30;4.15;;;3.25;;
20080;SDS011;10200;49.232;9.222;2024-03-17T12:21:59;3.20;;;2.63;;
20080;SDS011;10200;49.232;9.222;2024-03-17T12:24:26;5.43;;;2.50;;
20080;SDS011;10200;49.232;9.222;2024-03-17T12:26:53;4.18;;;3.08;;
20080;SDS011;10200;49.232;9.222;2024-03-17T12:31:55;4.05;;;2.70;;
20080;SDS011;10200;49.232;9.222;2024-03-17T12:34:26;6.45;;;3.40;;
20080;SDS011;10200;49.232;9.222;2024-03-17T12:36:54;3.78;;;2.85;;
20080;SDS011;10200;49.232;9.222;2024-03-17T12:44:36;5.88;;;2.72;;
20080;SDS011;10200;49.232;9.222;2024-03-17T12:47:06;3.92;;;2.97;;
20080;SDS011;10200;49.232;9.222;2024-03-17T12:49:33;6.65;;;2.88;;
20080;SDS011;10200;49.232;9.222;2024-03-17T12:52:00;4.65;;;3.15;;
20080;SDS011;10200;49.232;9.222;2024-03-17T12:54:27;3.45;;;2.90;;
20080;SDS011;10200;49.232;9.222;2024-03-17T12:57:03;3.78;;;2.58;;
20080;SDS011;10200;49.232;9.222;2024-03-17T12:59:51;2.65;;;2.10;;
20080;SDS011;10200;49.232;9.222;2024-03-17T13:02:44;4.32;;;2.67;;
20080;SDS011;10200;49.232;9.222;2024-03-17T13:05:16;2.33;;;2.13;;
20080;SDS011;10200;49.232;9.222;2024-03-17T13:07:43;3.80;;;2.65;;
20080;SDS011;10200;49.232;9.222;2024-03-17T13:10:11;4.38;;;2.42;;
20080;SDS011;10200;49.232;9.222;2024-03-17T13:12:44;3.55;;;2.38;;
20080;SDS011;10200;49.232;9.222;2024-03-17T13:15:14;3.40;;;2.55;;
20080;SDS011;10200;49.232;9.222;2024-03-17T13:17:41;4.03;;;2.60;;
20080;SDS011;10200;49.232;9.222;2024-03-17T13:20:08;3.33;;;2.67;;
20080;SDS011;10200;49.232;9.222;2024-03-17T13:22:44;4.75;;;2.38;;
20080;SDS011;10200;49.232;9.222;2024-03-17T13:25:14;6.30;;;2.92;;
20080;SDS011;10200;49.232;9.222;2024-03-17T13:27:42;3.13;;;2.58;;
20080;SDS011;10200;49.232;9.222;2024-03-17T13:30:10;4.53;;;2.80;;
20080;SDS011;10200;49.232;9.222;2024-03-17T13:32:39;3.60;;;2.20;;
20080;SDS011;10200;49.232;9.222;2024-03-17T13:35:13;4.53;;;3.42;;
20080;SDS011;10200;49.232;9.222;2024-03-17T13:37:42;3.80;;;2.90;;
20080;SDS011;10200;49.232;9.222;2024-03-17T13:40:08;3.92;;;3.00;;
20080;SDS011;10200;49.232;9.222;2024-03-17T13:42:37;5.03;;;2.57;;
20080;SDS011;10200;49.232;9.222;2024-03-17T13:45:03;3.43;;;2.50;;
20080;SDS011;10200;49.232;9.222;2024-03-17T13:47:29;4.37;;;2.57;;
20080;SDS011;10200;49.232;9.222;2024-03-17T13:49:58;4.27;;;3.00;;
20080;SDS011;10200;49.232;9.222;2024-03-17T13:52:23;3.70;;;2.33;;
20080;SDS011;10200;49.232;9.222;2024-03-17T13:54:53;3.87;;;2.93;;
20080;SDS011;10200;49.232;9.222;2024-03-17T13:57:18;3.50;;;2.60;;
20080;SDS011;10200;49.232;9.222;2024-03-17T13:59:44;3.27;;;2.63;;
20080;SDS011;10200;49.232;9.222;2024-03-17T14:02:12;4.57;;;2.77;;
20080;SDS011;10200;49.232;9.222;2024-03-17T14:04:38;6.10;;;3.27;;
20080;SDS011;10200;49.232;9.222;2024-03-17T14:07:04;4.50;;;2.92;;
20080;SDS011;10200;49.232;9.222;2024-03-17T14:09:30;4.20;;;2.70;;
20080;SDS011;10200;49.232;9.222;2024-03-17T14:11:56;4.37;;;2.57;;
20080;SDS011;10200;49.232;9.222;2024-03-17T14:14:22;4.80;;;2.50;;
20080;SDS011;10200;49.232;9.222;2024-03-17T14:16:48;6.67;;;2.53;;
20080;SDS011;10200;49.232;9.222;2024-03-17T14:19:14;2.43;;;2.23;;
20080;SDS011;10200;49.232;9.222;2024-03-17T14:21:39;5.93;;;3.80;;
20080;SDS011;10200;49.232;9.222;2024-03-17T14:24:05;4.60;;;3.83;;
20080;SDS011;10200;49.232;9.222;2024-03-17T14:26:33;4.10;;;2.97;;
20080;SDS011;10200;49.232;9.222;2024-03-17T14:29:00;3.30;;;3.00;;
20080;SDS011;10200;49.232;9.222;2024-03-17T14:31:32;4.00;;;2.50;;
20080;SDS011;10200;49.232;9.222;2024-03-17T14:34:01;5.07;;;2.80;;
20080;SDS011;10200;49.232;9.222;2024-03-17T14:36:27;6.17;;;3.77;;
20080;SDS011;10200;49.232;9.222;2024-03-17T14:38:54;3.30;;;2.80;;
20080;SDS011;10200;49.232;9.222;2024-03-17T14:41:20;3.60;;;2.60;;
20080;SDS011;10200;49.232;9.222;2024-03-17T14:43:46;4.63;;;2.97;;
20080;SDS011;10200;49.232;9.222;2024-03-17T14:46:12;6.53;;;4.50;;
20080;SDS011;10200;49.232;9.222;2024-03-17T14:48:39;6.23;;;4.83;;
20080;SDS011;10200;49.232;9.222;2024-03-17T14:51:05;6.70;;;3.23;;
20080;SDS011;10200;49.232;9.222;2024-03-17T14:53:31;3.58;;;2.50;;
20080;SDS011;10200;49.232;9.222;2024-03-17T14:55:57;3.70;;;2.80;;
20080;SDS011;10200;49.232;9.222;2024-03-17T14:58:24;5.00;;;2.70;;
20080;SDS011;10200;49.232;9.222;2024-03-17T15:00:49;3.70;;;2.37;;
20080;SDS011;10200;49.232;9.222;2024-03-17T15:03:15;3.83;;;2.53;;
20080;SDS011;10200;49.232;9.222;2024-03-17T15:05:40;3.13;;;2.20;;
20080;SDS011;10200;49.232;9.222;2024-03-17T15:08:07;3.53;;;2.40;;
20080;SDS011;10200;49.232;9.222;2024-03-17T15:10:34;3.70;;;2.60;;
20080;SDS011;10200;49.232;9.222;2024-03-17T15:13:00;3.00;;;2.13;;
20080;SDS011;10200;49.232;9.222;2024-03-17T15:15:27;2.90;;;2.60;;
20080;SDS011;10200;49.232;9.222;2024-03-17T15:17:53;3.07;;;2.63;;
20080;SDS011;10200;49.232;9.222;2024-03-17T15:20:19;4.20;;;2.73;;
20080;SDS011;10200;49.232;9.222;2024-03-17T15:22:46;2.73;;;2.17;;
20080;SDS011;10200;49.232;9.222;2024-03-17T15:25:14;6.83;;;2.43;;
20080;SDS011;10200;49.232;9.222;2024-03-17T15:27:41;3.47;;;2.40;;
20080;SDS011;10200;49.232;9.222;2024-03-17T15:30:07;3.87;;;2.43;;
20080;SDS011;10200;49.232;9.222;2024-03-17T15:32:36;3.87;;;2.43;;
20080;SDS011;10200;49.232;9.222;2024-03-17T15:35:02;2.50;;;1.77;;
20080;SDS011;10200;49.232;9.222;2024-03-17T15:37:28;3.73;;;2.10;;
20080;SDS011;10200;49.232;9.222;2024-03-17T15:39:54;3.37;;;2.23;;
20080;SDS011;10200;49.232;9.222;2024-03-17T15:42:20;5.57;;;2.80;;
20080;SDS011;10200;49.232;9.222;2024-03-17T15:44:46;5.87;;;3.03;;
20080;SDS011;10200;49.232;9.222;2024-03-17T15:47:13;5.40;;;2.37;;